首页
METAR-TAF:

METAR-TAF

机场 :

Little Rock National Airport (Adams Field)

小岩城, 阿肯色州, 美国

纬度: 34-43-36N, 经度: 092-14-10W, 海拔: 79米

当前天气观测

该预报发布于1小时和11分钟前的05:53 UTC
风速7节,风向东北
温度 13°C
湿度 77%
气压 1018 hPa
能見度: 16.1公里
阴天层高于2400英尺

METAR: KLIT 050553Z 04007KT 10SM OVC024 13/09 A3006 RMK AO2 SLP180 T01280094 10139 20122 401440106 58000

时间: 02:04 (07:04 UTC)

预报

该预报发布于1小时和28分钟前的05:36 UTC
预报有效从05日的 06点(UTC)到 06日的 06点(UTC)
风速7节,风向北转东北
能見度: 10公里
阴天层高于2500英尺
从 05日的 0800点(UTC)
风速3节,风向北转东北
能見度: 6.4公里
阴天层高于1500英尺
轻雾
从 05日的 1300点(UTC)
风速5节,风向东北
能見度: 10公里
阴天层高于1500英尺
从 05日的 2000点(UTC)
风速5节,风向
能見度: 10公里
阴天层高于5000英尺

TAF: KLIT 050536Z 0506/0606 03007KT P6SM OVC025 FM050800 02003KT 4SM BR OVC015 FM051300 05005KT P6SM OVC015 FM052000 18005KT P6SM OVC050

超过4000个机场的气象观测和天气预报(METAR&TAF报告)。

可查询的气象台以黄色和红色小点在地图上表示。

将鼠标移到小点上方,可查看气象台名称。

然后点击查看天气观测和预报。

如需切换地图:点击带黑十字的绿色按钮放大地图;点击带横线的绿色按钮缩小地图;或者点击绿色箭头查看邻近地区的地图。


METAR-TAF: